Time;durP1;ratioP1;P1;durP2;ratioP2;P2;SDS_P1;SDS_P2;PMS_P1;PMS_P2;Temp;Humidity;BMP_temperature;BMP_pressure;BME280_temperature;BME280_humidity;BME280_pressure;Samples;Min_cycle;Max_cycle;Signal;HPM_P1;HPM_P2
2023/07/07 00:00:18;;;;;;;;;;;;;;;21.09;37.89;102131.06;5060927;28;19920;-88
2023/07/07 00:02:43;;;;;;;;;;;;;;;21.08;37.57;102129.44;5063110;28;19928;-88
2023/07/07 00:05:09;;;;;;;;;;;;;;;21.05;37.55;102140.91;5058824;28;19927;-87
2023/07/07 00:07:34;;;;;;;;;;;;;;;21.02;37.91;102127.88;5056994;28;19916;-88
2023/07/07 00:09:59;;;;;;;;;;;;;;;20.97;38.08;102136.06;5057548;28;19936;-88
2023/07/07 00:12:24;;;;;;;;;;;;;;;20.93;37.77;102129.56;5057032;28;19924;-88
2023/07/07 00:14:50;;;;;;;;;;;;;;;20.90;38.15;102127.41;5056765;28;20474;-88
2023/07/07 00:17:16;;;;;;;;;;;;;;;20.84;38.05;102129.38;5062429;28;19924;-88
2023/07/07 00:19:41;;;;;;;;;;;;;;;20.80;38.18;102126.38;5063593;28;19989;-88
2023/07/07 00:22:07;;;;;;;;;;;;;;;20.78;38.11;102128.56;5063565;28;20561;-87
2023/07/07 00:24:33;;;;;;;;;;;;;;;20.72;38.21;102129.72;5062138;28;19966;-88
2023/07/07 00:26:59;;;;;;;;;;;;;;;20.65;38.78;102137.41;5061432;28;19920;-88
2023/07/07 00:29:24;;;;;;;;;;;;;;;20.65;38.49;102139.31;5060945;28;20446;-86
2023/07/07 00:31:49;;;;;;;;;;;;;;;20.62;38.20;102132.50;5061470;28;19924;-87
2023/07/07 00:34:15;;;;;;;;;;;;;;;20.58;38.33;102136.88;5064046;28;19971;-87
2023/07/07 00:36:40;;;;;;;;;;;;;;;20.56;38.42;102139.06;5066107;28;20060;-88
2023/07/07 00:39:05;;;;;;;;;;;;;;;20.54;38.54;102140.44;5061970;28;19921;-87
2023/07/07 00:41:31;;;;;;;;;;;;;;;20.49;38.56;102138.56;5067357;28;20440;-88
2023/07/07 00:44:01;;;;;;;;;;;;;;;20.47;38.31;102143.50;5063920;28;20137;-87
2023/07/07 00:46:26;;;;;;;;;;;;;;;20.42;38.49;102149.75;5063994;28;19925;-87
2023/07/07 00:48:52;;;;;;;;;;;;;;;20.39;38.58;102152.19;5063790;28;19924;-87
2023/07/07 00:51:23;;;;;;;;;;;;;;;20.33;38.75;102147.88;5063446;28;19921;-88
2023/07/07 00:53:50;;;;;;;;;;;;;;;20.27;38.83;102148.97;5067756;28;19920;-87
2023/07/07 00:56:38;;;;;;;;;;;;;;;20.22;38.78;102150.63;5069847;28;20384;-88
2023/07/07 00:59:07;;;;;;;;;;;;;;;20.21;38.81;102149.00;5056366;28;20388;-87
2023/07/07 01:01:33;;;;;;;;;;;;;;;20.17;39.04;102152.56;5066383;28;20077;-87
2023/07/07 01:04:01;;;;;;;;;;;;;;;20.16;38.95;102154.47;5063802;28;20491;-87
2023/07/07 01:06:29;;;;;;;;;;;;;;;20.11;39.00;102154.50;5064720;28;19924;-87
2023/07/07 01:08:57;;;;;;;;;;;;;;;20.08;39.17;102148.78;5063646;28;19916;-88
2023/07/07 01:11:23;;;;;;;;;;;;;;;20.01;39.33;102157.25;5067239;28;19916;-87
2023/07/07 01:13:48;;;;;;;;;;;;;;;19.98;39.17;102159.72;5067478;28;20250;-87
2023/07/07 01:16:33;;;;;;;;;;;;;;;19.96;39.32;102160.00;5058676;28;20393;-88
2023/07/07 01:19:15;;;;;;;;;;;;;;;19.94;39.17;102159.47;5063410;28;19974;-88
2023/07/07 01:21:54;;;;;;;;;;;;;;;19.90;39.48;102152.94;5066349;28;19920;-88
2023/07/07 01:24:38;;;;;;;;;;;;;;;19.86;39.40;102158.13;5059794;28;19959;-87
2023/07/07 01:27:04;;;;;;;;;;;;;;;19.83;39.38;102160.56;5068806;28;20173;-88
2023/07/07 01:29:38;;;;;;;;;;;;;;;19.80;39.46;102161.13;5059925;28;19966;-88
2023/07/07 01:32:08;;;;;;;;;;;;;;;19.78;39.50;102157.88;5061053;28;19920;-85
2023/07/07 01:34:35;;;;;;;;;;;;;;;19.76;39.38;102165.50;5061663;28;19951;-85
2023/07/07 01:37:00;;;;;;;;;;;;;;;19.72;39.36;102159.78;5054974;28;19952;-86
2023/07/07 01:39:25;;;;;;;;;;;;;;;19.70;39.35;102166.56;5055352;28;19936;-86
2023/07/07 01:41:59;;;;;;;;;;;;;;;19.65;39.46;102166.59;5055644;28;19920;-85
2023/07/07 01:44:24;;;;;;;;;;;;;;;19.60;39.66;102170.97;5057986;28;19928;-86
2023/07/07 01:46:56;;;;;;;;;;;;;;;19.58;39.66;102169.59;5057849;28;19982;-86
2023/07/07 01:49:32;;;;;;;;;;;;;;;19.55;39.45;102167.41;5055745;28;20404;-85
2023/07/07 01:52:24;;;;;;;;;;;;;;;19.53;39.68;102162.22;5055823;28;19920;-85
2023/07/07 01:54:53;;;;;;;;;;;;;;;19.49;39.64;102158.41;5049264;28;19920;-85
2023/07/07 01:57:20;;;;;;;;;;;;;;;19.48;39.92;102158.69;5053758;28;19917;-85
2023/07/07 01:59:45;;;;;;;;;;;;;;;19.44;39.82;102163.88;5059332;28;19974;-86
2023/07/07 02:02:11;;;;;;;;;;;;;;;19.41;39.83;102160.91;5056838;28;19924;-85
2023/07/07 02:04:36;;;;;;;;;;;;;;;19.38;39.85;102154.06;5056199;28;20019;-86
2023/07/07 02:07:01;;;;;;;;;;;;;;;19.35;39.87;102165.50;5055269;28;19940;-85
2023/07/07 02:09:27;;;;;;;;;;;;;;;19.31;39.94;102172.56;5057659;28;19964;-85
2023/07/07 02:11:52;;;;;;;;;;;;;;;19.28;40.19;102165.78;5058837;28;20040;-85
2023/07/07 02:14:18;;;;;;;;;;;;;;;19.25;40.20;102165.50;5055514;28;19932;-85
2023/07/07 02:16:43;;;;;;;;;;;;;;;19.22;40.14;102166.06;5055088;28;19948;-85
2023/07/07 02:19:08;;;;;;;;;;;;;;;19.19;40.33;102166.56;5060798;28;19924;-85
2023/07/07 02:21:33;;;;;;;;;;;;;;;19.15;40.22;102162.78;5054382;28;21745;-85
2023/07/07 02:23:59;;;;;;;;;;;;;;;19.14;40.11;102169.31;5046065;28;20108;-86
2023/07/07 02:26:24;;;;;;;;;;;;;;;19.12;40.27;102171.47;5053362;28;19920;-85
2023/07/07 02:28:49;;;;;;;;;;;;;;;19.09;40.41;102172.03;5059834;28;20409;-85
2023/07/07 02:31:15;;;;;;;;;;;;;;;19.06;40.21;102161.69;5061709;28;19920;-85
2023/07/07 02:33:41;;;;;;;;;;;;;;;19.04;40.14;102172.84;5063410;28;19963;-85
2023/07/07 02:36:07;;;;;;;;;;;;;;;19.01;40.38;102170.63;5061859;28;19923;-85
2023/07/07 02:38:33;;;;;;;;;;;;;;;19.01;40.12;102173.34;5061116;28;19978;-85
2023/07/07 02:40:59;;;;;;;;;;;;;;;18.97;40.17;102173.09;5056086;28;19989;-85
2023/07/07 02:43:24;;;;;;;;;;;;;;;18.97;40.54;102169.56;5057829;28;20369;-85
2023/07/07 02:45:50;;;;;;;;;;;;;;;18.96;40.57;102179.59;5059198;28;19947;-85
2023/07/07 02:48:17;;;;;;;;;;;;;;;18.94;40.44;102176.34;5058310;28;20315;-86
2023/07/07 02:50:42;;;;;;;;;;;;;;;18.91;40.62;102171.47;5055086;28;19940;-85
2023/07/07 02:53:07;;;;;;;;;;;;;;;18.89;40.62;102179.06;5056223;28;19920;-85
2023/07/07 02:55:33;;;;;;;;;;;;;;;18.86;40.82;102181.50;5056569;28;19967;-85
2023/07/07 02:57:58;;;;;;;;;;;;;;;18.84;40.77;102176.31;5061109;28;19993;-85
2023/07/07 03:00:24;;;;;;;;;;;;;;;18.82;40.76;102180.38;5062388;28;19916;-86
2023/07/07 03:02:49;;;;;;;;;;;;;;;18.80;40.77;102186.09;5055741;28;19928;-85
2023/07/07 03:05:15;;;;;;;;;;;;;;;18.79;40.78;102184.47;5059413;28;20650;-85
2023/07/07 03:07:40;;;;;;;;;;;;;;;18.79;40.49;102191.78;5054259;28;20432;-85
2023/07/07 03:10:06;;;;;;;;;;;;;;;18.77;40.76;102192.06;5056890;28;20315;-85
2023/07/07 03:12:32;;;;;;;;;;;;;;;18.78;40.91;102192.88;5059090;28;20362;-85
2023/07/07 03:14:57;;;;;;;;;;;;;;;18.76;40.86;102190.44;5055698;28;19960;-85
2023/07/07 03:17:23;;;;;;;;;;;;;;;18.76;41.01;102187.72;5060014;28;20283;-85
2023/07/07 03:19:48;;;;;;;;;;;;;;;18.76;40.83;102190.44;5057441;28;20534;-85
2023/07/07 03:22:13;;;;;;;;;;;;;;;18.77;40.79;102199.41;5056143;28;19947;-85
2023/07/07 03:24:39;;;;;;;;;;;;;;;18.76;40.93;102195.88;5052639;28;20663;-85
2023/07/07 03:27:04;;;;;;;;;;;;;;;18.75;41.02;102193.41;5056044;28;19993;-85
2023/07/07 03:29:29;;;;;;;;;;;;;;;18.75;41.24;102198.84;5053726;28;20153;-85
2023/07/07 03:31:55;;;;;;;;;;;;;;;18.76;41.44;102200.47;5059883;28;19966;-85
2023/07/07 03:34:20;;;;;;;;;;;;;;;18.80;41.65;102207.00;5056714;28;19978;-85
2023/07/07 03:36:46;;;;;;;;;;;;;;;18.81;41.38;102214.06;5058978;28;19928;-85
2023/07/07 03:39:11;;;;;;;;;;;;;;;18.84;41.26;102219.75;5056211;28;19955;-85
2023/07/07 03:41:36;;;;;;;;;;;;;;;18.88;41.21;102218.16;5054407;28;19956;-85
2023/07/07 03:44:01;;;;;;;;;;;;;;;18.93;41.41;102218.16;5055984;28;20301;-85
2023/07/07 03:46:28;;;;;;;;;;;;;;;18.98;41.27;102223.59;5056749;28;19928;-85
2023/07/07 03:48:54;;;;;;;;;;;;;;;19.00;41.48;102221.44;5048320;28;19939;-85
2023/07/07 03:51:20;;;;;;;;;;;;;;;19.02;41.16;102221.97;5056216;28;20380;-84
2023/07/07 03:53:45;;;;;;;;;;;;;;;19.04;41.28;102229.06;5055661;28;20400;-85
2023/07/07 03:56:11;;;;;;;;;;;;;;;19.07;41.63;102225.81;5048129;28;20027;-85
2023/07/07 03:58:36;;;;;;;;;;;;;;;19.12;41.64;102221.19;5056771;28;20048;-85
2023/07/07 04:01:02;;;;;;;;;;;;;;;19.19;41.65;102226.34;5057796;28;20046;-85
2023/07/07 04:03:28;;;;;;;;;;;;;;;19.26;41.59;102224.19;5052026;28;20161;-85
2023/07/07 04:05:54;;;;;;;;;;;;;;;19.33;41.46;102232.91;5057205;28;19921;-86
2023/07/07 04:08:23;;;;;;;;;;;;;;;19.40;41.36;102233.47;5058193;28;19920;-85
2023/07/07 04:11:08;;;;;;;;;;;;;;;19.50;41.67;102228.00;5053207;28;20017;-85
2023/07/07 04:13:34;;;;;;;;;;;;;;;19.57;41.55;102231.31;5053275;28;20163;-85
2023/07/07 04:16:01;;;;;;;;;;;;;;;19.66;41.51;102233.47;5051896;28;19920;-86
2023/07/07 04:18:26;;;;;;;;;;;;;;;19.73;41.53;102231.28;5058306;28;19920;-86
2023/07/07 04:20:51;;;;;;;;;;;;;;;19.80;41.87;102229.13;5055686;28;20400;-86
2023/07/07 04:23:17;;;;;;;;;;;;;;;19.87;41.58;102227.72;5056657;28;19929;-85
2023/07/07 04:25:45;;;;;;;;;;;;;;;19.91;41.60;102238.88;5053046;28;20043;-85
2023/07/07 04:28:10;;;;;;;;;;;;;;;19.97;41.65;102240.53;5057469;28;20093;-86
2023/07/07 04:30:35;;;;;;;;;;;;;;;20.00;41.65;102239.16;5058676;28;20503;-85
2023/07/07 04:33:01;;;;;;;;;;;;;;;20.01;41.59;102240.78;5058870;28;19917;-86
2023/07/07 04:35:26;;;;;;;;;;;;;;;20.07;41.75;102253.28;5056115;28;20311;-85
2023/07/07 04:37:51;;;;;;;;;;;;;;;20.13;41.70;102236.69;5054959;28;20073;-85
2023/07/07 04:40:17;;;;;;;;;;;;;;;20.21;42.04;102241.53;5059611;28;19927;-85
2023/07/07 04:42:42;;;;;;;;;;;;;;;20.32;42.13;102244.25;5054499;28;20340;-86
2023/07/07 04:45:07;;;;;;;;;;;;;;;20.42;41.59;102245.03;5055476;28;20019;-86
2023/07/07 04:47:33;;;;;;;;;;;;;;;20.54;41.60;102247.44;5058096;28;19920;-85
2023/07/07 04:49:58;;;;;;;;;;;;;;;20.67;41.64;102249.59;5052101;28;19952;-86
2023/07/07 04:52:23;;;;;;;;;;;;;;;20.83;41.64;102255.78;5058647;28;19933;-86
2023/07/07 04:54:49;;;;;;;;;;;;;;;20.94;41.32;102246.44;5055338;28;20197;-86
2023/07/07 04:57:14;;;;;;;;;;;;;;;21.06;41.62;102248.81;5050163;28;19916;-86
2023/07/07 04:59:40;;;;;;;;;;;;;;;21.16;41.37;102251.47;5053672;28;20393;-86
2023/07/07 05:02:05;;;;;;;;;;;;;;;21.22;41.61;102261.25;5056346;28;20011;-85
2023/07/07 05:04:30;;;;;;;;;;;;;;;21.32;41.38;102263.91;5058177;28;20351;-85
2023/07/07 05:06:56;;;;;;;;;;;;;;;21.42;41.74;102254.88;5058104;28;19952;-86
2023/07/07 05:09:21;;;;;;;;;;;;;;;21.51;41.42;102255.88;5063483;28;19958;-86
2023/07/07 05:11:46;;;;;;;;;;;;;;;21.59;41.17;102259.91;5056479;28;19959;-86
2023/07/07 05:14:12;;;;;;;;;;;;;;;21.65;40.79;102250.59;5060752;28;19942;-86
2023/07/07 05:16:37;;;;;;;;;;;;;;;21.77;41.00;102259.22;5057456;28;19928;-86
2023/07/07 05:19:03;;;;;;;;;;;;;;;21.91;40.89;102259.38;5060800;28;19924;-86
2023/07/07 05:21:28;;;;;;;;;;;;;;;22.05;41.04;102264.97;5059193;28;19920;-85
2023/07/07 05:23:54;;;;;;;;;;;;;;;22.16;41.15;102269.22;5056084;28;20455;-86
2023/07/07 05:26:20;;;;;;;;;;;;;;;22.27;40.92;102262.56;5050249;28;19935;-85
2023/07/07 05:28:45;;;;;;;;;;;;;;;22.39;40.83;102276.59;5058413;28;19924;-85
2023/07/07 05:31:10;;;;;;;;;;;;;;;22.52;40.60;102273.19;5062123;28;20942;-85
2023/07/07 05:33:39;;;;;;;;;;;;;;;22.66;40.38;102275.22;5054236;28;19925;-85
2023/07/07 05:36:05;;;;;;;;;;;;;;;22.83;40.39;102283.75;5063246;28;19962;-85
2023/07/07 05:38:31;;;;;;;;;;;;;;;23.00;40.33;102277.78;5059261;28;20011;-84
2023/07/07 05:40:57;;;;;;;;;;;;;;;23.15;39.91;102278.38;5055913;28;20012;-85
2023/07/07 05:43:23;;;;;;;;;;;;;;;23.33;39.75;102284.13;5057661;28;20012;-85
2023/07/07 05:45:59;;;;;;;;;;;;;;;23.46;39.62;102288.84;5060281;28;19920;-85
2023/07/07 05:48:24;;;;;;;;;;;;;;;23.62;39.64;102278.50;5060487;28;19930;-85
2023/07/07 05:50:51;;;;;;;;;;;;;;;23.73;39.39;102289.00;5058665;28;19921;-85
2023/07/07 05:53:19;;;;;;;;;;;;;;;23.84;39.62;102292.34;5054160;28;19947;-85
2023/07/07 05:55:47;;;;;;;;;;;;;;;23.95;38.94;102293.81;5050938;28;20057;-85
2023/07/07 05:58:14;;;;;;;;;;;;;;;24.04;38.81;102293.91;5056133;28;20062;-85
2023/07/07 06:00:42;;;;;;;;;;;;;;;24.17;38.83;102297.78;5057798;28;20010;-85
2023/07/07 06:03:11;;;;;;;;;;;;;;;24.28;38.59;102293.75;5057018;28;19936;-87
2023/07/07 06:05:38;;;;;;;;;;;;;;;24.38;38.78;102301.78;5064344;28;20193;-87
2023/07/07 06:08:06;;;;;;;;;;;;;;;24.49;38.79;102305.16;5061340;28;19916;-88
2023/07/07 06:10:32;;;;;;;;;;;;;;;24.62;38.83;102305.16;5049650;28;19921;-89
2023/07/07 06:13:01;;;;;;;;;;;;;;;24.78;38.79;102311.13;5058081;28;19925;-88
2023/07/07 06:15:26;;;;;;;;;;;;;;;24.95;38.48;102311.28;5061646;28;19924;-88
2023/07/07 06:17:51;;;;;;;;;;;;;;;25.11;38.27;102309.03;5063070;28;20288;-88
2023/07/07 06:20:17;;;;;;;;;;;;;;;25.21;38.00;102308.03;5060522;28;19954;-88
2023/07/07 06:22:42;;;;;;;;;;;;;;;25.29;37.87;102312.75;5061686;28;19934;-88
2023/07/07 06:25:07;;;;;;;;;;;;;;;25.38;37.67;102305.41;5061602;28;19920;-88
2023/07/07 06:27:33;;;;;;;;;;;;;;;25.51;37.95;102307.31;5057575;28;19921;-88
2023/07/07 06:30:03;;;;;;;;;;;;;;;25.73;37.66;102306.50;5065129;28;19927;-88
2023/07/07 06:32:29;;;;;;;;;;;;;;;26.00;37.64;102313.78;5064027;28;20278;-88
2023/07/07 06:34:54;;;;;;;;;;;;;;;26.26;36.94;102313.91;5059548;28;19928;-88
2023/07/07 06:37:25;;;;;;;;;;;;;;;26.48;36.79;102315.81;5058396;28;19925;-87
2023/07/07 06:39:51;;;;;;;;;;;;;;;26.70;36.52;102321.19;5065891;28;20447;-87
2023/07/07 06:42:16;;;;;;;;;;;;;;;26.85;36.33;102314.44;5063047;28;20062;-88
2023/07/07 06:44:44;;;;;;;;;;;;;;;27.02;36.13;102314.50;5065630;28;19928;-89
2023/07/07 06:47:12;;;;;;;;;;;;;;;27.16;36.02;102328.13;5062460;28;20444;-88
2023/07/07 06:49:38;;;;;;;;;;;;;;;27.32;36.04;102323.75;5061748;28;19960;-89
2023/07/07 06:52:03;;;;;;;;;;;;;;;27.51;35.48;102317.13;5059459;28;20005;-89
2023/07/07 06:54:28;;;;;;;;;;;;;;;27.71;35.24;102316.47;5060205;28;19927;-87
2023/07/07 06:56:54;;;;;;;;;;;;;;;27.85;34.75;102319.84;5058977;28;20333;-88
2023/07/07 06:59:19;;;;;;;;;;;;;;;27.96;34.66;102310.06;5060033;28;20025;-89
2023/07/07 07:01:45;;;;;;;;;;;;;;;28.04;33.95;102315.91;5058030;28;19927;-88
2023/07/07 07:04:10;;;;;;;;;;;;;;;28.11;33.47;102319.75;5055824;28;19983;-87
2023/07/07 07:06:35;;;;;;;;;;;;;;;28.18;33.83;102310.97;5052880;28;20026;-87
2023/07/07 07:09:01;;;;;;;;;;;;;;;28.27;33.64;102314.53;5055409;28;19962;-88
2023/07/07 07:11:26;;;;;;;;;;;;;;;28.36;32.94;102318.06;5058684;28;19920;-86
2023/07/07 07:13:51;;;;;;;;;;;;;;;28.43;32.95;102310.09;5062231;28;20412;-88
2023/07/07 07:16:17;;;;;;;;;;;;;;;28.54;32.69;102314.06;5058528;28;19921;-87
2023/07/07 07:18:42;;;;;;;;;;;;;;;28.60;32.61;102314.72;5061451;28;19924;-87
2023/07/07 07:21:08;;;;;;;;;;;;;;;28.69;32.83;102317.41;5058065;28;20364;-87
2023/07/07 07:23:33;;;;;;;;;;;;;;;28.79;31.84;102322.56;5059286;28;19948;-88
2023/07/07 07:25:58;;;;;;;;;;;;;;;28.83;32.25;102321.53;5059229;28;20023;-88
2023/07/07 07:28:24;;;;;;;;;;;;;;;28.95;32.27;102318.09;5057029;28;20367;-87
2023/07/07 07:30:49;;;;;;;;;;;;;;;29.06;31.25;102318.50;5056560;28;19930;-87
2023/07/07 07:33:19;;;;;;;;;;;;;;;29.22;32.27;102318.69;5059020;28;20308;-87
2023/07/07 07:35:45;;;;;;;;;;;;;;;29.36;31.87;102316.47;5054621;28;20047;-88
2023/07/07 07:38:10;;;;;;;;;;;;;;;29.41;31.78;102316.25;5058134;28;20027;-88
2023/07/07 07:40:35;;;;;;;;;;;;;;;29.50;31.34;102311.50;5056888;28;20584;-88
2023/07/07 07:43:01;;;;;;;;;;;;;;;29.60;31.00;102311.06;5062381;28;19929;-88
2023/07/07 07:45:29;;;;;;;;;;;;;;;29.70;31.24;102316.19;5059103;28;20714;-86
2023/07/07 07:47:54;;;;;;;;;;;;;;;29.84;30.87;102321.41;5053610;28;19928;-86
2023/07/07 07:50:20;;;;;;;;;;;;;;;29.92;31.13;102314.97;5053131;28;20372;-86
2023/07/07 07:52:45;;;;;;;;;;;;;;;29.98;30.24;102316.38;5055109;28;19920;-84
2023/07/07 07:55:11;;;;;;;;;;;;;;;30.08;30.35;102318.72;5056967;28;20510;-85
2023/07/07 07:57:37;;;;;;;;;;;;;;;30.24;30.23;102318.84;5059080;28;19922;-85
2023/07/07 08:00:04;;;;;;;;;;;;;;;30.43;29.97;102315.50;5062717;28;19928;-84
2023/07/07 08:02:29;;;;;;;;;;;;;;;30.52;29.83;102323.69;5060794;28;19917;-86
2023/07/07 08:04:55;;;;;;;;;;;;;;;30.57;29.07;102320.69;5064121;28;19927;-85
2023/07/07 08:07:20;;;;;;;;;;;;;;;30.65;29.60;102317.81;5055091;28;20672;-84
2023/07/07 08:09:46;;;;;;;;;;;;;;;30.78;29.74;102310.31;5060116;28;19925;-84
2023/07/07 08:12:11;;;;;;;;;;;;;;;30.94;28.96;102327.81;5061991;28;19931;-86
2023/07/07 08:14:36;;;;;;;;;;;;;;;31.06;29.32;102323.41;5057802;28;19998;-86
2023/07/07 08:17:05;;;;;;;;;;;;;;;31.17;28.83;102324.53;5058738;28;19970;-85
2023/07/07 08:19:31;;;;;;;;;;;;;;;31.31;28.49;102315.88;5060432;28;19967;-86
2023/07/07 08:21:57;;;;;;;;;;;;;;;31.42;28.57;102317.78;5059641;28;20304;-86
2023/07/07 08:24:23;;;;;;;;;;;;;;;31.54;28.96;102317.72;5055906;28;19928;-85
2023/07/07 08:26:49;;;;;;;;;;;;;;;31.74;28.63;102312.34;5061477;28;19921;-86
2023/07/07 08:29:14;;;;;;;;;;;;;;;31.95;28.74;102306.53;5060783;28;19927;-85
2023/07/07 08:31:40;;;;;;;;;;;;;;;32.06;27.59;102313.97;5057656;28;19921;-86
2023/07/07 08:34:05;;;;;;;;;;;;;;;32.12;27.39;102325.59;5060656;28;19952;-85
2023/07/07 08:36:30;;;;;;;;;;;;;;;32.16;27.78;102320.97;5054027;28;19925;-85
2023/07/07 08:39:16;;;;;;;;;;;;;;;32.21;27.27;102319.88;5061575;28;19920;-84
2023/07/07 08:41:45;;;;;;;;;;;;;;;32.13;26.91;102325.25;5064688;28;19927;-86
2023/07/07 08:44:14;;;;;;;;;;;;;;;32.15;27.42;102322.94;5061316;28;20235;-85
2023/07/07 08:46:43;;;;;;;;;;;;;;;32.29;27.34;102321.69;5060733;28;20597;-84
2023/07/07 08:49:13;;;;;;;;;;;;;;;32.40;27.17;102320.00;5072410;28;19916;-84
2023/07/07 08:51:42;;;;;;;;;;;;;;;32.50;26.84;102327.78;5065239;28;19920;-85
2023/07/07 08:54:25;;;;;;;;;;;;;;;32.62;26.33;102318.53;5062444;28;19978;-83
2023/07/07 08:56:59;;;;;;;;;;;;;;;32.76;26.52;102319.66;5062957;28;19936;-84
2023/07/07 08:59:31;;;;;;;;;;;;;;;32.96;26.53;102316.94;5062201;28;19924;-84
2023/07/07 09:02:07;;;;;;;;;;;;;;;33.11;26.23;102324.41;5058703;28;19920;-84
2023/07/07 09:04:41;;;;;;;;;;;;;;;33.15;25.82;102325.28;5058253;28;20558;-84
2023/07/07 09:07:25;;;;;;;;;;;;;;;33.25;25.88;102319.16;5060613;28;19916;-84
2023/07/07 09:09:58;;;;;;;;;;;;;;;33.47;26.03;102322.38;5061768;28;19923;-84
2023/07/07 09:12:33;;;;;;;;;;;;;;;33.57;25.03;102324.56;5060139;28;19986;-83
2023/07/07 09:15:02;;;;;;;;;;;;;;;33.55;25.38;102324.13;5061820;28;19920;-82
2023/07/07 09:17:36;;;;;;;;;;;;;;;33.68;25.16;102325.56;5059615;28;19916;-84
2023/07/07 09:20:04;;;;;;;;;;;;;;;33.81;25.04;102313.13;5057365;28;19920;-85
2023/07/07 09:22:38;;;;;;;;;;;;;;;33.97;25.42;102323.34;5058240;28;19921;-82
2023/07/07 09:25:07;;;;;;;;;;;;;;;34.07;23.27;102317.16;5059857;28;19920;-84
2023/07/07 09:27:36;;;;;;;;;;;;;;;34.02;24.42;102312.72;5057154;28;19920;-84
2023/07/07 09:30:27;;;;;;;;;;;;;;;34.04;23.58;102317.91;5060076;28;19956;-85
2023/07/07 09:32:53;;;;;;;;;;;;;;;34.05;24.60;102320.31;5057404;28;20381;-85
2023/07/07 09:35:20;;;;;;;;;;;;;;;34.20;24.40;102307.44;5060169;28;19927;-86
2023/07/07 09:37:45;;;;;;;;;;;;;;;34.29;24.40;102313.53;5059865;28;19934;-86
2023/07/07 09:40:13;;;;;;;;;;;;;;;34.36;23.66;102307.31;5062476;28;19924;-86
2023/07/07 09:42:54;;;;;;;;;;;;;;;34.40;23.49;102308.19;5059706;28;19920;-83
2023/07/07 09:45:41;;;;;;;;;;;;;;;34.41;23.98;102310.59;5059526;28;19928;-84
2023/07/07 09:48:12;;;;;;;;;;;;;;;34.55;23.33;102304.44;5063335;28;19960;-85
2023/07/07 09:50:44;;;;;;;;;;;;;;;34.67;23.94;102300.63;5060216;28;20167;-82
2023/07/07 09:53:16;;;;;;;;;;;;;;;34.91;23.54;102299.41;5059225;28;19917;-82
2023/07/07 09:55:41;;;;;;;;;;;;;;;35.19;22.73;102296.16;5060063;28;19966;-84
2023/07/07 09:58:06;;;;;;;;;;;;;;;35.34;23.19;102303.50;5062405;28;19920;-85
2023/07/07 10:00:34;;;;;;;;;;;;;;;35.30;22.87;102302.66;5058264;28;20004;-85
2023/07/07 10:03:01;;;;;;;;;;;;;;;35.34;22.66;102297.91;5058962;28;19925;-84
2023/07/07 10:05:31;;;;;;;;;;;;;;;35.30;22.15;102302.66;5056510;28;19917;-85
2023/07/07 10:07:57;;;;;;;;;;;;;;;35.32;22.14;102309.44;5062074;28;19944;-84
2023/07/07 10:10:22;;;;;;;;;;;;;;;35.37;22.02;102302.75;5057302;28;20000;-84
2023/07/07 10:12:48;;;;;;;;;;;;;;;35.47;22.52;102302.06;5059854;28;20346;-85
2023/07/07 10:15:22;;;;;;;;;;;;;;;35.64;22.07;102297.88;5056498;28;19920;-83
2023/07/07 10:17:56;;;;;;;;;;;;;;;35.85;22.01;102302.88;5058636;28;20775;-86
2023/07/07 10:20:22;;;;;;;;;;;;;;;35.88;21.50;102299.31;5060278;28;19987;-83
2023/07/07 10:22:47;;;;;;;;;;;;;;;35.82;21.45;102289.69;5058633;28;20483;-86
2023/07/07 10:25:13;;;;;;;;;;;;;;;35.75;20.70;102292.41;5058149;28;20416;-86
2023/07/07 10:27:40;;;;;;;;;;;;;;;35.78;21.27;102300.00;5058441;28;20027;-83
2023/07/07 10:30:05;;;;;;;;;;;;;;;35.78;21.59;102295.22;5060790;28;19928;-83
2023/07/07 10:32:31;;;;;;;;;;;;;;;35.77;21.39;102298.41;5053193;28;20083;-82
2023/07/07 10:34:57;;;;;;;;;;;;;;;35.84;21.49;102290.13;5048919;28;20025;-84
2023/07/07 10:37:24;;;;;;;;;;;;;;;35.92;21.35;102280.66;5051842;28;20102;-81
2023/07/07 10:39:56;;;;;;;;;;;;;;;35.97;21.24;102274.69;5049798;28;20001;-81
2023/07/07 10:42:26;;;;;;;;;;;;;;;36.05;20.74;102276.34;5050175;28;19921;-84
2023/07/07 10:44:52;;;;;;;;;;;;;;;36.04;21.29;102280.31;5049387;28;19936;-84
2023/07/07 10:47:21;;;;;;;;;;;;;;;36.01;21.12;102275.53;5056208;28;19920;-83
2023/07/07 10:49:47;;;;;;;;;;;;;;;35.95;20.70;102272.31;5052584;28;20412;-83
2023/07/07 10:52:15;;;;;;;;;;;;;;;35.89;21.72;102273.81;5052924;28;20589;-85
2023/07/07 10:55:03;;;;;;;;;;;;;;;35.81;21.34;102276.91;5052788;28;19928;-84
2023/07/07 10:57:41;;;;;;;;;;;;;;;35.77;21.33;102282.47;5038251;28;19920;-83
2023/07/07 11:00:28;;;;;;;;;;;;;;;35.71;21.60;102270.84;5060319;28;20423;-82
2023/07/07 11:03:04;;;;;;;;;;;;;;;35.69;20.65;102280.78;5047226;28;19925;-84
2023/07/07 11:05:33;;;;;;;;;;;;;;;35.82;21.49;102278.53;5051468;28;20334;-87
2023/07/07 11:07:58;;;;;;;;;;;;;;;35.95;20.98;102263.13;5055175;28;19920;-82
2023/07/07 11:10:27;;;;;;;;;;;;;;;35.93;20.65;102262.72;5053877;28;20186;-84
2023/07/07 11:12:59;;;;;;;;;;;;;;;35.96;20.89;102256.38;5052747;28;20283;-83
2023/07/07 11:15:25;;;;;;;;;;;;;;;35.93;20.96;102268.31;5053553;28;19920;-84
2023/07/07 11:18:16;;;;;;;;;;;;;;;35.93;20.65;102263.53;5056550;28;20311;-84
2023/07/07 11:20:41;;;;;;;;;;;;;;;36.15;21.02;102264.47;5050511;28;20016;-84
2023/07/07 11:23:10;;;;;;;;;;;;;;;36.35;20.80;102259.47;5045192;28;19925;-85
2023/07/07 11:25:54;;;;;;;;;;;;;;;36.49;19.82;102250.38;5050679;28;19920;-82
2023/07/07 11:28:38;;;;;;;;;;;;;;;36.70;20.51;102261.66;5050299;28;20389;-83
2023/07/07 11:31:09;;;;;;;;;;;;;;;36.77;19.53;102255.28;5048323;28;19960;-85
2023/07/07 11:33:49;;;;;;;;;;;;;;;36.74;19.46;102253.28;5053590;28;19920;-84
2023/07/07 11:36:14;;;;;;;;;;;;;;;36.77;20.19;102250.50;5055156;28;19919;-84
2023/07/07 11:38:43;;;;;;;;;;;;;;;36.90;19.88;102257.38;5056396;28;20330;-85
2023/07/07 11:41:20;;;;;;;;;;;;;;;36.96;19.21;102251.41;5053091;28;19957;-83
2023/07/07 11:44:05;;;;;;;;;;;;;;;37.04;19.81;102251.03;5051702;28;19946;-84
2023/07/07 11:46:53;;;;;;;;;;;;;;;37.15;19.09;102245.47;5054531;28;19921;-83
2023/07/07 11:49:21;;;;;;;;;;;;;;;37.12;19.09;102243.47;5053914;28;19958;-84
2023/07/07 11:51:46;;;;;;;;;;;;;;;37.01;19.09;102242.66;5055448;28;19920;-84
2023/07/07 11:54:15;;;;;;;;;;;;;;;36.85;19.04;102241.00;5055224;28;19931;-86
2023/07/07 11:56:40;;;;;;;;;;;;;;;36.75;19.63;102236.13;5052738;28;20454;-85
2023/07/07 11:59:05;;;;;;;;;;;;;;;36.94;20.22;102228.66;5049867;28;19920;-82
2023/07/07 12:01:35;;;;;;;;;;;;;;;37.27;19.65;102222.78;5043726;28;19924;-84
2023/07/07 12:04:33;;;;;;;;;;;;;;;37.61;19.54;102228.00;5052977;28;20058;-84
2023/07/07 12:07:02;;;;;;;;;;;;;;;37.79;19.38;102234.44;5014837;28;20611;-84
2023/07/07 12:09:39;;;;;;;;;;;;;;;37.83;19.40;102229.63;5062676;28;19974;-85
2023/07/07 12:12:04;;;;;;;;;;;;;;;37.86;19.11;102228.81;5051765;28;19924;-84
2023/07/07 12:14:39;;;;;;;;;;;;;;;38.01;19.53;102230.41;5045882;28;19974;-84
2023/07/07 12:17:07;;;;;;;;;;;;;;;38.11;18.36;102228.81;5042081;28;19923;-84
2023/07/07 12:19:45;;;;;;;;;;;;;;;38.02;18.51;102232.00;5040524;28;20525;-83
2023/07/07 12:22:19;;;;;;;;;;;;;;;38.00;18.83;102231.59;5055219;28;19968;-84
2023/07/07 12:24:47;;;;;;;;;;;;;;;37.73;18.55;102230.44;5054792;28;19928;-83
2023/07/07 12:27:18;;;;;;;;;;;;;;;37.56;18.67;102232.00;5055932;28;19928;-85
2023/07/07 12:29:45;;;;;;;;;;;;;;;37.53;19.01;102232.81;5048312;28;19921;-85
2023/07/07 12:32:11;;;;;;;;;;;;;;;37.44;18.63;102244.38;5046196;28;21014;-84
2023/07/07 12:34:39;;;;;;;;;;;;;;;37.31;19.04;102234.75;5059085;28;20015;-84
2023/07/07 12:37:16;;;;;;;;;;;;;;;37.36;19.18;102239.97;5043370;28;19921;-84
2023/07/07 12:39:51;;;;;;;;;;;;;;;37.59;19.39;102234.00;5050942;28;19920;-83